08:07
Airports
History
Links
Donate
Help keep this website running!
PayPal
Bitcoin
Information on this page is community maintained and may be outdated or inaccurate and is intended for reference only or PC simulator navigating!
Always use approved charts for navigating.
EDQH
HerzogenaurachEdited 12-Sep-2012
Herzogenaurach (EDQH)
Herzogenaurach, Bayern, Germany (91074)
(C)
Lat/Lng:49° 35' 1.01" N / 10° 52' 25" E
49.583614 / 10.873612
Elevation:1069'ft 326mMSL
ID / ICAO:EDQH
Runways:1
Longest:(08-26) 756.4m 2,482ft Asphalt
Controlled:Yes
Distance To
Airport ID:
Airport Radio Frequencies
Tower: 122.85
Nearby VORs <50NM
Nearby NDBs
Nearby WeatherUpdated 03-28-17 07:50 GMT
Nearby weather at EDDN, Nurnberg located 10.9 nautical miles from EDQH
Altimeter: 30.24
Visibility: 6.2 statute miles
Wind: 2 knots (VRB°)
Temp: 9°c 48°f
Humidity: %

METAR: EDDN 280750Z VRB02KT CAVOK 09/M00 Q1024 NOSIG

(Powered by phpweather)
Runway 08 / 26
Dimensions:756.4 x 22.9m 2482' x 75'ft
Surface:Asphalt
Runway 08 [A]Runway 26 [B]
Heading:075°TH 255°TH
Lat:
Lng:
49° 34' 54.46"N
10° 52' 22.04"E
49° 35' 0.49"N
10° 52' 58.64"E
Edited 09-12-122
Google Map
Nearby Airports
(C) Nurnberg 10.9 NM
EDDN (WX) ESE 122°
(U) Neustadt Aisch 13.3 NM
EDQN W 271°
(C) BURG FEUERSTEIN 18.6 NM
EDQE NE 38°
(U) BAMBERG AAF 23.4 NM
ETEJ N
(C) Roth 27.3 NM
ETHR (WX) SSE 158°
(U) Rothenburg ob der Tauber 32.3 NM
EDFR WSW 245°
(U) HASSFURT SCHWEINFURT 33.7 NM
EDQT NNW 332°
VFR Chart
Flight Planning at SkyVector.com